createdAt,value
2023-04-18T00:00:48.563Z,50.20
2023-04-18T00:03:16.897Z,49.81
2023-04-18T00:05:44.871Z,49.00
2023-04-18T00:08:11.361Z,50.06
2023-04-18T00:10:38.856Z,49.70
2023-04-18T00:13:07.701Z,49.93
2023-04-18T00:15:43.840Z,50.02
2023-04-18T00:18:12.856Z,50.54
2023-04-18T00:20:39.274Z,50.73
2023-04-18T00:23:08.187Z,50.55
2023-04-18T00:25:36.760Z,50.64
2023-04-18T00:28:03.464Z,50.82
2023-04-18T00:30:29.980Z,50.76
2023-04-18T00:32:56.524Z,51.02
2023-04-18T00:35:23.056Z,51.35
2023-04-18T00:37:49.520Z,52.29
2023-04-18T00:40:15.985Z,51.01
2023-04-18T00:42:42.381Z,51.33
2023-04-18T00:45:08.855Z,51.22
2023-04-18T00:47:36.492Z,51.31
2023-04-18T00:50:02.933Z,51.60
2023-04-18T00:52:30.020Z,51.33
2023-04-18T00:54:56.852Z,51.08
2023-04-18T00:57:23.269Z,51.38
2023-04-18T00:59:50.576Z,51.70
2023-04-18T01:02:17.191Z,51.13
2023-04-18T01:04:43.837Z,50.82
2023-04-18T01:07:10.371Z,51.36
2023-04-18T01:09:36.856Z,51.24
2023-04-18T01:12:03.314Z,51.48
2023-04-18T01:14:29.803Z,51.37
2023-04-18T01:16:56.605Z,50.87
2023-04-18T01:19:23.328Z,51.45
2023-04-18T01:21:49.785Z,50.89
2023-04-18T01:24:19.328Z,51.64
2023-04-18T01:26:48.150Z,51.50
2023-04-18T01:29:38.890Z,50.86
2023-04-18T01:32:07.977Z,51.10
2023-04-18T01:34:36.938Z,51.19
2023-04-18T01:39:43.633Z,51.55
2023-04-18T01:42:10.054Z,51.50
2023-04-18T01:44:38.769Z,51.79
2023-04-18T01:47:05.265Z,52.02
2023-04-18T01:49:31.699Z,51.48
2023-04-18T01:54:38.417Z,51.12
2023-04-18T01:57:04.896Z,52.19
2023-04-18T01:59:31.226Z,51.95
2023-04-18T02:01:57.702Z,52.17
2023-04-18T02:04:24.254Z,52.93
2023-04-18T02:06:50.822Z,52.80
2023-04-18T02:09:21.808Z,52.19
2023-04-18T02:11:48.308Z,52.71
2023-04-18T02:14:14.945Z,52.69
2023-04-18T02:19:30.982Z,53.18
2023-04-18T02:21:57.342Z,53.25
2023-04-18T02:24:23.699Z,53.03
2023-04-18T02:26:50.113Z,52.42
2023-04-18T02:29:16.523Z,52.40
2023-04-18T02:31:43.002Z,52.21
2023-04-18T02:34:09.535Z,52.60
2023-04-18T02:36:36.029Z,53.45
2023-04-18T02:39:02.505Z,52.98
2023-04-18T02:41:28.931Z,52.83
2023-04-18T02:43:55.374Z,53.37
2023-04-18T02:46:21.854Z,53.31
2023-04-18T02:48:48.454Z,53.71
2023-04-18T02:51:14.970Z,53.04
2023-04-18T02:53:41.393Z,53.28
2023-04-18T02:56:07.861Z,55.31
2023-04-18T02:58:34.327Z,55.10
2023-04-18T03:01:00.834Z,55.28
2023-04-18T03:03:27.336Z,55.89
2023-04-18T03:05:53.888Z,55.58
2023-04-18T03:08:20.416Z,55.60
2023-04-18T03:10:46.894Z,55.32
2023-04-18T03:13:13.372Z,54.71
2023-04-18T03:15:39.894Z,54.60
2023-04-18T03:18:06.548Z,54.24
2023-04-18T03:20:33.064Z,54.38
2023-04-18T03:22:59.581Z,54.38
2023-04-18T03:25:26.065Z,54.37
2023-04-18T03:27:52.507Z,54.89
2023-04-18T03:30:19.104Z,54.89
2023-04-18T03:32:45.701Z,55.15
2023-04-18T03:35:12.244Z,55.03
2023-04-18T03:37:38.736Z,55.04
2023-04-18T03:40:05.222Z,55.43
2023-04-18T03:42:32.090Z,55.12
2023-04-18T03:44:58.586Z,54.66
2023-04-18T03:47:25.230Z,54.79
2023-04-18T03:49:51.733Z,55.17
2023-04-18T03:52:18.289Z,55.37
2023-04-18T03:54:44.827Z,56.34
2023-04-18T03:57:11.444Z,56.41
2023-04-18T03:59:37.915Z,55.72
2023-04-18T04:02:04.551Z,55.85
2023-04-18T04:04:31.269Z,56.29
2023-04-18T04:06:57.738Z,56.28
2023-04-18T04:09:24.347Z,56.27
2023-04-18T04:11:50.790Z,55.56
2023-04-18T04:14:17.260Z,56.11
2023-04-18T04:16:43.763Z,56.14
2023-04-18T04:19:10.264Z,56.09
2023-04-18T04:21:36.683Z,55.91
2023-04-18T04:24:03.166Z,56.50
2023-04-18T04:26:29.694Z,56.29
2023-04-18T04:28:56.228Z,55.89
2023-04-18T04:31:22.728Z,56.72
2023-04-18T04:33:49.220Z,55.99
2023-04-18T04:36:17.981Z,56.28
2023-04-18T04:38:45.092Z,56.19
2023-04-18T04:41:11.532Z,56.49
2023-04-18T04:43:38.017Z,56.50
2023-04-18T04:46:04.722Z,56.35
2023-04-18T04:48:31.283Z,57.04
2023-04-18T04:50:57.748Z,56.22
2023-04-18T04:53:24.267Z,56.63
2023-04-18T04:55:51.800Z,56.81
2023-04-18T04:58:18.250Z,57.20
2023-04-18T05:00:44.686Z,57.19
2023-04-18T05:03:11.344Z,57.47
2023-04-18T05:05:38.067Z,57.52
2023-04-18T05:08:04.553Z,57.22
2023-04-18T05:10:31.028Z,57.18
2023-04-18T05:12:57.569Z,57.74
2023-04-18T05:15:24.089Z,57.80
2023-04-18T05:17:50.746Z,58.13
2023-04-18T05:20:17.395Z,58.44
2023-04-18T05:22:44.837Z,57.54
2023-04-18T05:25:11.301Z,58.08
2023-04-18T05:27:37.765Z,57.28
2023-04-18T05:30:04.239Z,57.96
2023-04-18T05:32:30.834Z,57.41
2023-04-18T05:34:57.354Z,57.95
2023-04-18T05:37:23.873Z,57.85
2023-04-18T05:39:50.280Z,57.73
2023-04-18T05:42:16.727Z,57.89
2023-04-18T05:44:43.197Z,57.69
2023-04-18T05:49:49.996Z,57.98
2023-04-18T05:52:16.526Z,57.40
2023-04-18T05:54:42.994Z,57.48
2023-04-18T05:57:09.464Z,56.97
2023-04-18T05:59:35.973Z,57.55
2023-04-18T06:02:02.641Z,57.61
2023-04-18T06:04:29.330Z,56.96
2023-04-18T06:06:55.926Z,57.03
2023-04-18T06:09:22.446Z,57.93
2023-04-18T06:11:48.865Z,57.72
2023-04-18T06:14:15.572Z,57.90
2023-04-18T06:16:42.369Z,58.03
2023-04-18T06:19:08.766Z,57.44
2023-04-18T06:21:35.366Z,58.04
2023-04-18T06:24:02.863Z,57.27
2023-04-18T06:26:29.374Z,57.82
2023-04-18T06:28:55.781Z,59.01
2023-04-18T06:31:23.568Z,58.97
2023-04-18T06:33:50.274Z,60.30
2023-04-18T06:36:16.669Z,60.29
2023-04-18T06:38:43.935Z,59.53
2023-04-18T06:41:10.482Z,59.85
2023-04-18T06:43:36.857Z,60.15
2023-04-18T06:46:10.336Z,60.49
2023-04-18T06:48:36.842Z,59.49
2023-04-18T06:51:03.379Z,59.68
2023-04-18T06:53:29.766Z,59.46
2023-04-18T06:55:56.229Z,59.12
2023-04-18T06:58:22.626Z,59.53
2023-04-18T07:00:56.914Z,60.15
2023-04-18T07:03:23.448Z,58.89
2023-04-18T07:05:49.950Z,58.57
2023-04-18T07:10:56.692Z,59.31
2023-04-18T07:13:23.142Z,58.46
2023-04-18T07:15:49.710Z,59.07
2023-04-18T07:18:23.351Z,60.19
2023-04-18T07:20:57.000Z,58.71
2023-04-18T07:23:23.481Z,57.98
2023-04-18T07:25:49.979Z,57.62
2023-04-18T07:28:16.435Z,57.78
2023-04-18T07:30:42.885Z,56.99
2023-04-18T07:36:00.164Z,57.38
2023-04-18T07:38:26.776Z,56.78
2023-04-18T07:40:53.240Z,57.55
2023-04-18T07:43:20.868Z,56.62
2023-04-18T07:45:47.427Z,56.49
2023-04-18T07:48:13.881Z,55.95
2023-04-18T07:50:40.710Z,56.07
2023-04-18T07:53:07.124Z,56.36
2023-04-18T07:55:33.487Z,56.16
2023-04-18T07:57:59.999Z,56.93
2023-04-18T08:00:26.690Z,56.56
2023-04-18T08:02:53.299Z,57.10
2023-04-18T08:05:19.905Z,56.63
2023-04-18T08:07:46.379Z,56.15
2023-04-18T08:10:13.901Z,56.50
2023-04-18T08:12:40.360Z,55.81
2023-04-18T08:15:06.902Z,56.83
2023-04-18T08:17:33.690Z,56.68
2023-04-18T08:20:00.175Z,57.07
2023-04-18T08:22:27.006Z,57.13
2023-04-18T08:27:23.860Z,57.16
2023-04-18T08:29:50.288Z,56.64
2023-04-18T08:32:16.777Z,56.94
2023-04-18T08:34:43.159Z,56.80
2023-04-18T08:37:09.713Z,57.07
2023-04-18T08:39:36.150Z,56.48
2023-04-18T08:42:05.644Z,57.21
2023-04-18T08:44:33.129Z,57.49
2023-04-18T08:46:59.742Z,58.29
2023-04-18T08:49:26.196Z,57.56
2023-04-18T08:51:52.623Z,58.05
2023-04-18T08:54:19.067Z,58.47
2023-04-18T08:56:45.475Z,58.61
2023-04-18T08:59:12.002Z,58.22
2023-04-18T09:01:38.665Z,57.70
2023-04-18T09:04:05.140Z,57.65
2023-04-18T09:06:31.587Z,56.92
2023-04-18T09:08:58.099Z,56.71
2023-04-18T09:11:24.513Z,55.92
2023-04-18T09:13:52.483Z,56.35
2023-04-18T09:16:18.876Z,56.23
2023-04-18T09:18:45.283Z,55.56
2023-04-18T09:21:11.671Z,56.86
2023-04-18T09:23:38.042Z,56.65
2023-04-18T09:26:04.475Z,56.35
2023-04-18T09:28:30.951Z,56.55
2023-04-18T09:30:57.438Z,56.23
2023-04-18T09:33:23.927Z,55.90
2023-04-18T09:35:50.309Z,56.51
2023-04-18T09:38:16.850Z,55.89
2023-04-18T09:40:43.304Z,56.42
2023-04-18T09:43:09.716Z,56.47
2023-04-18T09:45:36.164Z,56.02
2023-04-18T09:48:02.652Z,57.07
2023-04-18T09:50:29.035Z,57.11
2023-04-18T09:52:55.399Z,56.73
2023-04-18T09:55:21.781Z,57.18
2023-04-18T09:57:48.180Z,57.29
2023-04-18T10:00:14.620Z,57.06
2023-04-18T10:02:41.042Z,58.02
2023-04-18T10:05:09.513Z,58.89
2023-04-18T10:07:36.036Z,59.13
2023-04-18T10:10:02.437Z,58.60
2023-04-18T10:12:28.858Z,59.44
2023-04-18T10:14:55.311Z,59.97
2023-04-18T10:17:21.962Z,57.42
2023-04-18T10:19:48.580Z,59.64
2023-04-18T10:22:14.999Z,60.24
2023-04-18T10:24:41.476Z,59.50
2023-04-18T10:27:07.929Z,59.03
2023-04-18T10:29:34.306Z,57.67
2023-04-18T10:32:00.723Z,59.98
2023-04-18T10:34:27.258Z,60.94
2023-04-18T10:36:53.733Z,61.88
2023-04-18T10:39:20.249Z,60.13
2023-04-18T10:41:47.921Z,60.42
2023-04-18T10:44:15.614Z,61.14
2023-04-18T10:46:42.476Z,61.12
2023-04-18T10:49:08.898Z,60.87
2023-04-18T10:51:35.293Z,60.54
2023-04-18T10:54:01.759Z,60.82
2023-04-18T10:56:28.322Z,60.59
2023-04-18T10:58:55.135Z,62.24
2023-04-18T11:01:23.077Z,63.35
2023-04-18T11:03:49.566Z,59.90
2023-04-18T11:06:15.991Z,60.35
2023-04-18T11:08:42.682Z,58.76
2023-04-18T11:11:09.091Z,58.40
2023-04-18T11:13:35.533Z,61.02
2023-04-18T11:16:02.012Z,59.64
2023-04-18T11:18:28.419Z,61.48
2023-04-18T11:20:54.889Z,59.91
2023-04-18T11:23:21.368Z,60.04
2023-04-18T11:25:53.925Z,57.70
2023-04-18T11:28:20.310Z,60.29
2023-04-18T11:30:46.751Z,59.72
2023-04-18T11:33:13.295Z,59.20
2023-04-18T11:35:41.133Z,60.45
2023-04-18T11:38:07.665Z,60.31
2023-04-18T11:40:34.234Z,60.87
2023-04-18T11:43:00.691Z,60.07
2023-04-18T11:45:28.420Z,59.92
2023-04-18T11:47:54.877Z,58.28
2023-04-18T11:50:21.496Z,57.91
2023-04-18T11:52:49.134Z,58.67
2023-04-18T11:55:15.662Z,59.20
2023-04-18T11:57:42.244Z,58.00
2023-04-18T12:00:08.807Z,58.60
2023-04-18T12:02:35.467Z,57.84
2023-04-18T12:05:02.240Z,57.64
2023-04-18T12:07:29.071Z,57.09
2023-04-18T12:09:55.479Z,57.17
2023-04-18T12:12:23.524Z,56.02
2023-04-18T12:14:49.966Z,54.98
2023-04-18T12:17:16.462Z,54.79
2023-04-18T12:19:42.931Z,53.88
2023-04-18T12:22:09.463Z,54.39
2023-04-18T12:24:35.928Z,53.79
2023-04-18T12:27:02.512Z,54.14
2023-04-18T12:29:29.129Z,54.05
2023-04-18T12:31:55.734Z,52.92
2023-04-18T12:34:22.159Z,55.01
2023-04-18T12:36:48.613Z,53.55
2023-04-18T12:39:15.088Z,52.95
2023-04-18T12:41:41.660Z,52.78
2023-04-18T12:44:08.058Z,54.68
2023-04-18T12:46:34.551Z,53.39
2023-04-18T12:49:00.976Z,51.26
2023-04-18T12:51:27.392Z,50.04
2023-04-18T12:53:53.905Z,50.16
2023-04-18T12:56:20.298Z,49.49
2023-04-18T12:58:46.727Z,48.60
2023-04-18T13:01:14.543Z,51.83
2023-04-18T13:03:41.159Z,53.38
2023-04-18T13:06:07.764Z,52.72
2023-04-18T13:08:34.252Z,53.56
2023-04-18T13:11:00.685Z,53.67
2023-04-18T13:13:27.137Z,53.93
2023-04-18T13:15:53.662Z,53.33
2023-04-18T13:18:20.150Z,54.57
2023-04-18T13:20:46.560Z,53.16
2023-04-18T13:23:12.997Z,51.95
2023-04-18T13:25:39.374Z,52.02
2023-04-18T13:28:05.804Z,51.49
2023-04-18T13:30:33.444Z,51.81
2023-04-18T13:32:59.916Z,52.37
2023-04-18T13:35:26.336Z,55.16
2023-04-18T13:37:52.711Z,54.96
2023-04-18T13:40:19.080Z,56.41
2023-04-18T13:42:45.465Z,55.27
2023-04-18T13:45:11.864Z,54.31
2023-04-18T13:47:38.365Z,53.21
2023-04-18T13:50:04.818Z,51.89
2023-04-18T13:52:31.424Z,52.13
2023-04-18T13:54:57.929Z,51.03
2023-04-18T13:57:24.350Z,51.72
2023-04-18T13:59:52.753Z,50.24
2023-04-18T14:02:19.254Z,48.58
2023-04-18T14:04:45.974Z,48.98
2023-04-18T14:07:12.386Z,48.68
2023-04-18T14:09:38.785Z,50.00
2023-04-18T14:12:05.234Z,49.76
2023-04-18T14:14:31.754Z,49.88
2023-04-18T14:16:58.286Z,49.20
2023-04-18T14:19:24.798Z,48.29
2023-04-18T14:21:51.340Z,48.55
2023-04-18T14:24:17.785Z,49.38
2023-04-18T14:26:44.489Z,48.18
2023-04-18T14:29:10.864Z,48.45
2023-04-18T14:31:37.279Z,48.76
2023-04-18T14:34:04.029Z,47.48
2023-04-18T14:36:30.769Z,48.75
2023-04-18T14:38:59.950Z,48.23
2023-04-18T14:41:28.802Z,50.08
2023-04-18T14:43:55.472Z,49.50
2023-04-18T14:46:22.843Z,47.91
2023-04-18T14:48:52.026Z,47.15
2023-04-18T14:51:18.569Z,48.02
2023-04-18T14:53:45.010Z,47.50
2023-04-18T14:56:11.523Z,47.49
2023-04-18T14:58:37.898Z,46.01
2023-04-18T15:01:04.297Z,45.67
2023-04-18T15:03:31.089Z,45.49
2023-04-18T15:05:57.722Z,44.89
2023-04-18T15:08:24.123Z,45.04
2023-04-18T15:10:50.594Z,45.30
2023-04-18T15:13:17.016Z,44.52
2023-04-18T15:15:43.524Z,44.48
2023-04-18T15:18:09.916Z,45.73
2023-04-18T15:20:36.462Z,45.50
2023-04-18T15:23:02.821Z,45.38
2023-04-18T15:25:29.236Z,43.86
2023-04-18T15:27:55.666Z,44.29
2023-04-18T15:30:22.160Z,45.14
2023-04-18T15:32:48.752Z,45.55
2023-04-18T15:35:17.324Z,45.52
2023-04-18T15:37:43.684Z,45.90
2023-04-18T15:40:10.183Z,45.78
2023-04-18T15:42:36.563Z,46.58
2023-04-18T15:45:02.954Z,46.75
2023-04-18T15:47:29.426Z,47.59
2023-04-18T15:49:55.825Z,47.32
2023-04-18T15:52:22.284Z,46.26
2023-04-18T15:54:49.962Z,48.91
2023-04-18T15:57:16.354Z,51.94
2023-04-18T15:59:42.782Z,50.04
2023-04-18T16:02:09.262Z,48.81
2023-04-18T16:04:35.690Z,49.04
2023-04-18T16:07:02.159Z,50.19
2023-04-18T16:09:28.562Z,48.96
2023-04-18T16:11:54.972Z,45.70
2023-04-18T16:14:21.369Z,40.33
2023-04-18T16:16:47.795Z,34.78
2023-04-18T16:19:14.161Z,31.30
2023-04-18T16:21:40.533Z,27.84
2023-04-18T16:24:06.898Z,27.53
2023-04-18T16:26:33.243Z,30.27
2023-04-18T16:28:59.573Z,31.57
2023-04-18T16:31:26.075Z,30.37
2023-04-18T16:33:52.809Z,30.50
2023-04-18T16:36:19.414Z,30.04
2023-04-18T16:38:47.399Z,30.14
2023-04-18T16:41:13.781Z,29.84
2023-04-18T16:43:40.123Z,30.07
2023-04-18T16:46:06.593Z,30.14
2023-04-18T16:48:33.144Z,30.42
2023-04-18T16:50:59.566Z,32.01
2023-04-18T16:53:25.998Z,33.92
2023-04-18T16:55:52.401Z,33.03
2023-04-18T16:58:32.227Z,33.80
2023-04-18T17:00:58.575Z,34.77
2023-04-18T17:03:25.297Z,35.60
2023-04-18T17:05:51.889Z,36.41
2023-04-18T17:08:18.242Z,36.92
2023-04-18T17:10:44.643Z,37.12
2023-04-18T17:13:11.094Z,36.92
2023-04-18T17:15:37.617Z,37.62
2023-04-18T17:18:04.108Z,37.41
2023-04-18T17:20:30.533Z,37.88
2023-04-18T17:22:57.159Z,38.87
2023-04-18T17:25:23.559Z,38.90
2023-04-18T17:27:49.969Z,39.52
2023-04-18T17:30:16.437Z,39.36
2023-04-18T17:32:43.013Z,39.40
2023-04-18T17:35:09.495Z,39.00
2023-04-18T17:37:35.898Z,38.50
2023-04-18T17:40:02.306Z,38.97
2023-04-18T17:42:28.721Z,38.79
2023-04-18T17:44:55.136Z,39.24
2023-04-18T17:47:21.513Z,39.59
2023-04-18T17:49:48.054Z,40.47
2023-04-18T17:52:16.367Z,40.67
2023-04-18T17:54:42.760Z,40.71
2023-04-18T17:57:09.175Z,40.65
2023-04-18T17:59:35.626Z,40.84
2023-04-18T18:02:02.101Z,41.53
2023-04-18T18:04:28.684Z,41.24
2023-04-18T18:06:55.105Z,40.94
2023-04-18T18:09:21.754Z,40.74
2023-04-18T18:11:48.957Z,41.24
2023-04-18T18:14:15.338Z,41.83
2023-04-18T18:16:41.904Z,41.61
2023-04-18T18:19:08.414Z,42.16
2023-04-18T18:21:34.973Z,42.43
2023-04-18T18:24:01.435Z,41.94
2023-04-18T18:26:27.893Z,42.18
2023-04-18T18:28:56.380Z,42.14
2023-04-18T18:31:22.861Z,42.63
2023-04-18T18:33:50.386Z,42.02
2023-04-18T18:36:17.876Z,42.19
2023-04-18T18:38:44.322Z,42.13
2023-04-18T18:41:10.736Z,42.59
2023-04-18T18:43:39.228Z,41.64
2023-04-18T18:46:05.686Z,41.76
2023-04-18T18:48:32.158Z,42.03
2023-04-18T18:50:58.634Z,41.83
2023-04-18T18:53:25.090Z,42.05
2023-04-18T18:55:51.597Z,42.21
2023-04-18T18:58:18.031Z,42.96
2023-04-18T19:00:44.775Z,41.82
2023-04-18T19:03:13.986Z,42.83
2023-04-18T19:05:40.509Z,42.65
2023-04-18T19:08:06.972Z,42.54
2023-04-18T19:10:36.637Z,41.89
2023-04-18T19:13:03.156Z,42.33
2023-04-18T19:15:29.641Z,42.64
2023-04-18T19:17:56.167Z,42.77
2023-04-18T19:20:22.535Z,42.46
2023-04-18T19:22:48.989Z,43.25
2023-04-18T19:25:15.432Z,42.81
2023-04-18T19:27:42.975Z,43.64
2023-04-18T19:30:13.698Z,43.18
2023-04-18T19:32:40.131Z,44.09
2023-04-18T19:35:08.642Z,43.70
2023-04-18T19:37:35.152Z,43.84
2023-04-18T19:40:01.687Z,44.27
2023-04-18T19:42:32.427Z,45.02
2023-04-18T19:44:58.960Z,45.10
2023-04-18T19:47:25.478Z,45.08
2023-04-18T19:49:51.913Z,44.96
2023-04-18T19:52:19.305Z,45.19
2023-04-18T19:54:45.770Z,44.33
2023-04-18T19:57:12.199Z,44.18
2023-04-18T19:59:38.596Z,43.96
2023-04-18T20:02:06.463Z,43.98
2023-04-18T20:04:33.348Z,43.54
2023-04-18T20:06:59.909Z,44.22
2023-04-18T20:09:26.321Z,44.99
2023-04-18T20:11:52.829Z,45.43
2023-04-18T20:14:19.247Z,44.51
2023-04-18T20:16:47.093Z,44.50
2023-04-18T20:19:13.878Z,44.05
2023-04-18T20:21:44.866Z,44.40
2023-04-18T20:24:12.372Z,44.71
2023-04-18T20:26:38.859Z,45.14
2023-04-18T20:29:05.568Z,45.32
2023-04-18T20:31:32.124Z,46.16
2023-04-18T20:33:58.523Z,45.54
2023-04-18T20:36:25.774Z,46.23
2023-04-18T20:39:03.056Z,46.21
2023-04-18T20:41:29.538Z,46.95
2023-04-18T20:43:56.102Z,46.98
2023-04-18T20:46:23.517Z,46.99
2023-04-18T20:48:50.025Z,46.80
2023-04-18T20:51:16.828Z,46.15
2023-04-18T20:53:43.295Z,46.01
2023-04-18T20:56:09.815Z,46.75
2023-04-18T20:58:38.984Z,46.11
2023-04-18T21:01:06.578Z,46.04
2023-04-18T21:03:34.220Z,44.89
2023-04-18T21:06:01.502Z,45.09
2023-04-18T21:08:30.547Z,45.63
2023-04-18T21:10:56.909Z,46.27
2023-04-18T21:13:25.069Z,45.74
2023-04-18T21:15:53.675Z,45.99
2023-04-18T21:18:20.134Z,45.61
2023-04-18T21:20:46.508Z,46.00
2023-04-18T21:23:12.941Z,46.07
2023-04-18T21:25:41.681Z,46.35
2023-04-18T21:28:08.109Z,45.99
2023-04-18T21:30:39.899Z,46.99
2023-04-18T21:33:14.244Z,45.82
2023-04-18T21:35:40.642Z,46.21
2023-04-18T21:38:07.162Z,46.92
2023-04-18T21:40:33.608Z,46.86
2023-04-18T21:43:00.136Z,46.40
2023-04-18T21:45:26.761Z,47.12
2023-04-18T21:47:53.302Z,47.53
2023-04-18T21:50:19.693Z,48.18
2023-04-18T21:52:47.484Z,47.93
2023-04-18T21:55:14.072Z,48.66
2023-04-18T21:57:40.533Z,48.12
2023-04-18T22:00:09.250Z,47.86
2023-04-18T22:02:36.961Z,48.38
2023-04-18T22:05:03.800Z,48.06
2023-04-18T22:07:30.315Z,47.98
2023-04-18T22:09:57.055Z,48.00
2023-04-18T22:12:23.743Z,47.45
2023-04-18T22:14:51.066Z,47.24
2023-04-18T22:17:17.641Z,47.01
2023-04-18T22:19:44.084Z,47.32
2023-04-18T22:22:10.651Z,47.88
2023-04-18T22:24:37.083Z,47.78
2023-04-18T22:27:03.443Z,48.13
2023-04-18T22:29:29.866Z,48.38
2023-04-18T22:32:01.910Z,48.58
2023-04-18T22:34:28.392Z,48.38
2023-04-18T22:36:54.909Z,48.60
2023-04-18T22:39:21.507Z,48.30
2023-04-18T22:41:47.991Z,48.12
2023-04-18T22:44:23.108Z,48.67
2023-04-18T22:46:49.588Z,48.44
2023-04-18T22:49:21.076Z,48.32
2023-04-18T22:51:47.576Z,48.64
2023-04-18T22:54:14.216Z,48.41
2023-04-18T22:59:21.304Z,48.92
2023-04-18T23:01:47.890Z,48.19
2023-04-18T23:04:14.792Z,48.34
2023-04-18T23:06:41.545Z,48.98
2023-04-18T23:09:08.144Z,48.54
2023-04-18T23:11:39.293Z,48.84
2023-04-18T23:14:07.989Z,48.98
2023-04-18T23:16:34.439Z,48.78
2023-04-18T23:19:00.958Z,48.88
2023-04-18T23:21:27.470Z,49.32
2023-04-18T23:23:53.933Z,49.29
2023-04-18T23:26:20.426Z,49.30
2023-04-18T23:28:47.005Z,49.14
2023-04-18T23:31:13.656Z,49.14
2023-04-18T23:33:40.150Z,49.56
2023-04-18T23:36:06.740Z,49.86
2023-04-18T23:38:33.140Z,49.68
2023-04-18T23:40:59.484Z,49.16
2023-04-18T23:43:25.922Z,49.77
2023-04-18T23:45:52.388Z,49.82
2023-04-18T23:48:18.862Z,49.20
2023-04-18T23:50:45.381Z,49.37
2023-04-18T23:53:11.858Z,49.16
2023-04-18T23:55:38.274Z,49.64
2023-04-18T23:58:04.685Z,49.92
